Time;durP1;ratioP1;P1;durP2;ratioP2;P2;SDS_P1;SDS_P2;PMS_P1;PMS_P2;Temp;Humidity;BMP_temperature;BMP_pressure;BME280_temperature;BME280_humidity;BME280_pressure;Samples;Min_cycle;Max_cycle;Signal;HPM_P1;HPM_P2
2023/06/01 00:01:12;;;;;;;8.53;5.60;;;;;;;17.76;42.71;96319.84;5009169;28;20195;-69
2023/06/01 00:03:38;;;;;;;5.47;4.50;;;;;;;17.98;41.77;96316.50;5008908;28;20176;-69
2023/06/01 00:06:03;;;;;;;7.10;5.07;;;;;;;17.80;42.03;96315.19;5008817;28;20978;-69
2023/06/01 00:08:29;;;;;;;7.63;5.27;;;;;;;17.84;42.19;96312.22;5008926;28;20192;-68
2023/06/01 00:10:54;;;;;;;4.70;4.13;;;;;;;17.91;41.59;96304.66;5008712;28;20250;-68
2023/06/01 00:13:20;;;;;;;7.20;5.00;;;;;;;17.72;42.47;96308.63;5008670;28;20267;-69
2023/06/01 00:15:45;;;;;;;10.47;6.57;;;;;;;17.75;42.29;96310.22;5008956;28;20179;-70
2023/06/01 00:18:12;;;;;;;8.10;5.00;;;;;;;17.60;42.21;96303.38;5008840;28;20216;-70
2023/06/01 00:20:39;;;;;;;12.17;5.63;;;;;;;17.68;42.38;96312.47;5008972;28;20701;-68
2023/06/01 00:23:05;;;;;;;12.90;5.30;;;;;;;17.64;42.69;96308.34;5008594;28;20434;-68
2023/06/01 00:25:31;;;;;;;10.80;4.90;;;;;;;17.62;42.65;96304.09;5008725;28;20462;-69
2023/06/01 00:27:56;;;;;;;7.27;5.23;;;;;;;17.82;42.10;96302.69;5009235;28;20439;-67
2023/06/01 00:30:22;;;;;;;6.20;4.90;;;;;;;17.55;42.23;96301.91;5012044;28;20172;-70
2023/06/01 00:32:47;;;;;;;8.47;4.90;;;;;;;17.67;41.96;96300.16;5014708;28;20231;-69
2023/06/01 00:35:12;;;;;;;5.53;4.90;;;;;;;17.64;42.51;96305.69;5008124;28;20688;-69
2023/06/01 00:37:38;;;;;;;7.40;5.10;;;;;;;17.69;41.63;96300.91;5006308;28;20270;-68
2023/06/01 00:40:04;;;;;;;7.23;4.77;;;;;;;17.54;42.19;96300.22;5007403;28;20664;-70
2023/06/01 00:42:29;;;;;;;7.43;4.80;;;;;;;17.59;42.11;96299.03;5005921;28;20179;-69
2023/06/01 00:44:55;;;;;;;10.53;5.83;;;;;;;17.76;42.13;96303.94;5007857;28;20234;-69
2023/06/01 00:47:20;;;;;;;7.37;5.00;;;;;;;17.66;41.92;96309.06;5006948;28;20208;-68
2023/06/01 00:49:46;;;;;;;8.07;4.57;;;;;;;17.63;42.37;96298.69;5008032;28;20176;-70
2023/06/01 00:52:13;;;;;;;6.20;5.27;;;;;;;17.66;42.31;96301.13;5007952;28;20176;-69
2023/06/01 00:54:39;;;;;;;8.53;5.10;;;;;;;17.55;41.96;96309.88;5007685;28;20172;-68
2023/06/01 00:57:05;;;;;;;8.53;5.00;;;;;;;17.59;41.92;96299.03;5008047;28;20775;-70
2023/06/01 00:59:31;;;;;;;8.53;5.23;;;;;;;17.43;42.51;96296.66;5007900;28;20183;-70
2023/06/01 01:01:57;;;;;;;6.70;4.83;;;;;;;17.26;42.44;96308.47;5008047;28;20434;-69
2023/06/01 01:04:25;;;;;;;8.90;5.20;;;;;;;17.29;42.78;96302.94;5007581;28;20770;-72
2023/06/01 01:07:03;;;;;;;11.43;5.80;;;;;;;17.27;42.42;96300.44;5007585;28;20208;-69
2023/06/01 01:09:56;;;;;;;8.40;5.70;;;;;;;17.25;42.51;96305.00;5008030;28;21015;-70
2023/06/01 01:12:39;;;;;;;5.97;5.07;;;;;;;17.19;42.89;96304.56;5008000;28;20462;-70
2023/06/01 01:15:21;;;;;;;11.70;5.00;;;;;;;17.17;42.74;96295.88;5007414;28;20434;-68
2023/06/01 01:17:51;;;;;;;6.40;4.60;;;;;;;17.13;42.95;96297.94;5007326;28;20428;-69
2023/06/01 01:20:26;;;;;;;7.57;5.00;;;;;;;17.18;42.69;96297.59;5007726;28;20477;-70
2023/06/01 01:23:05;;;;;;;6.00;4.83;;;;;;;17.14;43.13;96304.91;5007719;28;20457;-70
2023/06/01 01:25:40;;;;;;;8.37;5.00;;;;;;;17.21;42.66;96295.56;5006954;28;20486;-68
2023/06/01 01:28:33;;;;;;;7.33;5.70;;;;;;;17.30;42.52;96302.84;5007558;28;20423;-68
2023/06/01 01:31:01;;;;;;;7.43;5.23;;;;;;;17.29;42.51;96298.50;5007451;28;20464;-69
2023/06/01 01:33:28;;;;;;;12.17;7.63;;;;;;;17.29;42.85;96295.00;5007074;28;21124;-69
2023/06/01 01:35:55;;;;;;;11.57;4.87;;;;;;;17.21;42.84;96295.56;5007314;28;20410;-69
2023/06/01 01:38:20;;;;;;;7.83;4.77;;;;;;;17.26;42.92;96292.56;5007142;28;20433;-68
2023/06/01 01:40:46;;;;;;;12.43;4.90;;;;;;;17.34;43.21;96293.72;5007058;28;20407;-68
2023/06/01 01:43:12;;;;;;;7.00;5.23;;;;;;;17.19;43.11;96296.63;5007235;28;20199;-70
2023/06/01 01:45:37;;;;;;;11.93;5.83;;;;;;;17.33;42.96;96297.31;5007614;28;20204;-69
2023/06/01 01:48:12;;;;;;;13.77;5.30;;;;;;;17.29;43.05;96300.28;5018373;28;20431;-71
2023/06/01 01:51:02;;;;;;;6.13;4.60;;;;;;;17.34;43.10;96292.88;5020356;28;20175;-71
2023/06/01 01:53:29;;;;;;;7.17;5.00;;;;;;;17.33;42.89;96293.81;5013164;28;20891;-70
2023/06/01 01:55:56;;;;;;;8.87;4.67;;;;;;;17.14;43.12;96296.97;5013139;28;20415;-68
2023/06/01 01:58:23;;;;;;;7.70;5.10;;;;;;;17.16;43.23;96294.19;5010616;28;20458;-70
2023/06/01 02:01:09;;;;;;;11.33;5.67;;;;;;;17.09;43.41;96299.09;5007510;28;20438;-67
2023/06/01 02:03:35;;;;;;;11.20;5.70;;;;;;;17.11;43.48;96298.03;4964605;28;20431;-70
2023/06/01 02:06:00;;;;;;;8.43;5.20;;;;;;;17.11;43.26;96292.72;4964284;28;20508;-70
2023/06/01 02:08:25;;;;;;;11.23;4.67;;;;;;;17.13;43.63;96298.75;4964609;28;20213;-70
2023/06/01 02:10:51;;;;;;;9.47;6.13;;;;;;;17.21;43.28;96292.06;4964395;28;20182;-69
2023/06/01 02:13:16;;;;;;;6.87;5.43;;;;;;;17.08;43.55;96298.25;4964170;28;20170;-69
2023/06/01 02:15:42;;;;;;;7.30;5.17;;;;;;;17.09;43.95;96293.78;4964067;28;20854;-70
2023/06/01 02:18:07;;;;;;;9.20;5.17;;;;;;;16.93;44.50;96288.72;4964426;28;20289;-71
2023/06/01 02:20:32;;;;;;;6.87;5.30;;;;;;;16.95;44.33;96297.41;4964441;28;20635;-70
2023/06/01 02:22:58;;;;;;;9.50;5.90;;;;;;;17.03;43.82;96294.22;4964351;28;20208;-70
2023/06/01 02:25:23;;;;;;;8.50;5.80;;;;;;;17.07;44.15;96293.06;4964228;28;20204;-71
2023/06/01 02:27:49;;;;;;;13.07;5.50;;;;;;;17.01;43.95;96294.34;4964206;28;20554;-70
2023/06/01 02:30:14;;;;;;;17.93;6.03;;;;;;;16.93;44.10;96289.56;4964333;28;20197;-70
2023/06/01 02:32:40;;;;;;;9.93;5.73;;;;;;;16.91;44.44;96287.97;4964305;28;20170;-71
2023/06/01 02:35:06;;;;;;;10.80;5.90;;;;;;;16.94;44.11;96290.44;4963805;28;20193;-70
2023/06/01 02:37:32;;;;;;;11.07;6.83;;;;;;;17.00;44.46;96284.69;4964109;28;20209;-71
2023/06/01 02:39:57;;;;;;;14.47;6.80;;;;;;;17.01;44.31;96288.19;4974124;28;21172;-71
2023/06/01 02:42:23;;;;;;;22.13;6.23;;;;;;;16.92;44.17;96284.41;5006091;28;20179;-70
2023/06/01 02:44:48;;;;;;;16.17;6.23;;;;;;;16.92;44.40;96290.53;5005642;28;20185;-68
2023/06/01 02:47:14;;;;;;;13.67;5.67;;;;;;;16.91;44.21;96288.84;5005729;28;20215;-69
2023/06/01 02:49:39;;;;;;;8.83;5.17;;;;;;;16.93;44.54;96291.38;5005863;28;20176;-71
2023/06/01 02:52:05;;;;;;;18.27;7.20;;;;;;;16.87;44.53;96281.22;5006291;28;20180;-70
2023/06/01 02:54:30;;;;;;;70.57;12.30;;;;;;;16.90;45.04;96288.94;5006157;28;20203;-68
2023/06/01 02:56:56;;;;;;;16.60;6.47;;;;;;;16.81;44.80;96286.94;5006134;28;20266;-68
2023/06/01 02:59:21;;;;;;;13.57;6.00;;;;;;;16.87;44.80;96286.53;5006018;28;20846;-70
2023/06/01 03:01:47;;;;;;;14.57;5.87;;;;;;;16.81;45.32;96279.00;5006116;28;20611;-67
2023/06/01 03:04:13;;;;;;;23.00;7.67;;;;;;;16.78;45.04;96277.38;5005894;28;20222;-69
2023/06/01 03:06:39;;;;;;;12.33;6.30;;;;;;;16.77;45.60;96275.69;5009440;28;20204;-68
2023/06/01 03:09:05;;;;;;;14.47;5.80;;;;;;;16.73;45.53;96280.34;5010018;28;20223;-68
2023/06/01 03:11:30;;;;;;;22.43;7.13;;;;;;;16.78;45.84;96279.19;5009757;28;20823;-69
2023/06/01 03:13:58;;;;;;;48.47;11.10;;;;;;;16.76;45.93;96281.09;5009468;28;20218;-67
2023/06/01 03:16:25;;;;;;;98.70;15.93;;;;;;;16.71;46.19;96281.44;5009862;28;20202;-69
2023/06/01 03:18:52;;;;;;;44.73;10.27;;;;;;;16.76;45.94;96281.09;5009553;28;20907;-69
2023/06/01 03:21:17;;;;;;;22.20;7.03;;;;;;;16.76;45.61;96286.41;5009534;28;20507;-72
2023/06/01 03:23:43;;;;;;;18.00;7.03;;;;;;;16.67;46.10;96283.44;5009322;28;20431;-69
2023/06/01 03:26:12;;;;;;;25.50;8.10;;;;;;;16.65;45.98;96280.06;5009653;28;21004;-70
2023/06/01 03:28:38;;;;;;;22.50;6.87;;;;;;;16.65;46.35;96288.00;5009454;28;20427;-67
2023/06/01 03:31:04;;;;;;;11.47;6.47;;;;;;;16.74;45.95;96291.81;5009438;28;20425;-68
2023/06/01 03:33:30;;;;;;;12.70;6.40;;;;;;;16.68;46.11;96285.13;5009043;28;20419;-70
2023/06/01 03:35:56;;;;;;;26.17;7.57;;;;;;;16.79;46.12;96289.69;5009280;28;20175;-68
2023/06/01 03:38:22;;;;;;;14.17;6.00;;;;;;;16.75;46.11;96295.28;5009326;28;20195;-68
2023/06/01 03:40:47;;;;;;;11.83;6.53;;;;;;;16.72;46.56;96291.94;5009614;28;20493;-68
2023/06/01 03:43:13;;;;;;;20.13;7.40;;;;;;;16.83;46.04;96293.00;5009151;28;20553;-68
2023/06/01 03:45:38;;;;;;;20.80;6.37;;;;;;;16.81;45.83;96290.44;5008873;28;20661;-71
2023/06/01 03:48:04;;;;;;;15.37;6.20;;;;;;;16.78;46.37;96298.59;5007119;28;20258;-67
2023/06/01 03:50:29;;;;;;;11.20;6.90;;;;;;;16.86;46.21;96295.41;5008873;28;20215;-70
2023/06/01 03:52:55;;;;;;;14.53;6.63;;;;;;;16.89;45.87;96300.50;5008819;28;20701;-68
2023/06/01 03:55:20;;;;;;;27.60;8.33;;;;;;;16.96;46.16;96300.91;5008876;28;20187;-70
2023/06/01 03:57:46;;;;;;;33.10;8.93;;;;;;;16.99;45.93;96303.38;5007982;28;20673;-68
2023/06/01 04:00:17;;;;;;;12.10;6.20;;;;;;;17.01;45.58;96310.25;5009173;28;20180;-68
2023/06/01 04:03:06;;;;;;;18.40;6.67;;;;;;;17.19;45.57;96304.56;5008709;28;20180;-69
2023/06/01 04:05:32;;;;;;;23.40;7.80;;;;;;;17.36;45.17;96304.19;5008555;28;20497;-70
2023/06/01 04:07:58;;;;;;;14.77;6.40;;;;;;;17.44;45.04;96306.31;5009171;28;20896;-69
2023/06/01 04:10:23;;;;;;;21.20;7.30;;;;;;;17.63;44.54;96297.84;5002911;28;20306;-69
2023/06/01 04:12:50;;;;;;;36.17;8.93;;;;;;;17.90;47.15;96302.94;5005173;28;20195;-71
2023/06/01 04:15:18;;;;;;;10.07;6.50;;;;;;;18.85;45.18;96297.47;5008615;28;20225;-71
2023/06/01 04:17:43;;;;;;;9.90;5.43;;;;;;;19.29;45.49;96301.94;5009120;28;20444;-72
2023/06/01 04:20:11;;;;;;;8.63;5.47;;;;;;;19.45;43.98;96306.88;4997000;28;20956;-71
2023/06/01 04:22:38;;;;;;;6.30;5.20;;;;;;;19.59;43.48;96300.41;5008214;28;20208;-71
2023/06/01 04:25:07;;;;;;;8.70;5.63;;;;;;;19.81;42.51;96303.03;5008238;28;20426;-70
2023/06/01 04:27:36;;;;;;;8.73;5.23;;;;;;;20.04;41.33;96300.28;5000897;28;20467;-71
2023/06/01 04:30:07;;;;;;;9.67;5.40;;;;;;;20.12;41.73;96299.63;4997532;28;20550;-70
2023/06/01 04:32:37;;;;;;;9.13;5.47;;;;;;;20.14;41.64;96298.53;5008547;28;20411;-70
2023/06/01 04:35:07;;;;;;;7.63;5.80;;;;;;;20.37;40.68;96303.75;4999416;28;20590;-70
2023/06/01 04:37:41;;;;;;;11.13;5.77;;;;;;;20.51;41.06;96300.75;5008483;28;20447;-71
2023/06/01 04:40:09;;;;;;;10.70;5.60;;;;;;;20.54;41.21;96299.66;5008253;28;20408;-72
2023/06/01 04:42:48;;;;;;;10.47;6.00;;;;;;;20.67;39.66;96305.63;5002817;28;20442;-70
2023/06/01 04:45:15;;;;;;;7.63;5.03;;;;;;;20.69;39.26;96309.00;4995907;28;20436;-71
2023/06/01 04:47:44;;;;;;;6.90;5.77;;;;;;;20.77;38.95;96301.22;5003165;28;20855;-70
2023/06/01 04:50:12;;;;;;;7.83;5.53;;;;;;;20.74;39.35;96304.16;5007965;28;20430;-71
2023/06/01 04:52:41;;;;;;;7.70;6.17;;;;;;;20.90;39.34;96301.81;5005440;28;21077;-71
2023/06/01 04:55:08;;;;;;;7.80;6.50;;;;;;;20.98;38.67;96309.19;4999441;28;20898;-70
2023/06/01 04:57:35;;;;;;;10.83;6.10;;;;;;;21.01;38.54;96308.06;5007750;28;20470;-69
2023/06/01 05:00:07;;;;;;;9.97;6.57;;;;;;;21.21;38.33;96303.63;5007711;28;20411;-70
2023/06/01 05:02:33;;;;;;;6.30;5.40;;;;;;;21.09;38.37;96306.38;5000498;28;21196;-70
2023/06/01 05:04:58;;;;;;;14.90;7.00;;;;;;;21.39;38.83;96304.66;5004954;28;20411;-71
2023/06/01 05:07:24;;;;;;;9.97;5.40;;;;;;;21.39;37.42;96301.16;5007424;28;20208;-71
2023/06/01 05:09:50;;;;;;;18.70;6.40;;;;;;;21.32;38.81;96307.03;4998858;28;20239;-71
2023/06/01 05:12:15;;;;;;;10.00;5.50;;;;;;;21.59;38.38;96302.94;5007033;28;20415;-72
2023/06/01 05:14:40;;;;;;;8.87;5.83;;;;;;;21.01;38.03;96310.72;5005056;28;20184;-69
2023/06/01 05:17:06;;;;;;;12.73;6.77;;;;;;;;;;4999264;28;20914;-70
2023/06/01 05:19:31;;;;;;;10.40;5.50;;;;;;;21.25;38.46;96305.91;5007471;28;20198;-71
2023/06/01 05:21:56;;;;;;;13.30;6.50;;;;;;;21.56;37.55;96303.19;5005364;28;20204;-73
2023/06/01 05:24:22;;;;;;;8.20;5.73;;;;;;;21.51;38.03;96308.09;4994737;28;20212;-70
2023/06/01 05:26:47;;;;;;;8.90;6.10;;;;;;;21.53;37.37;96304.31;5002930;28;20206;-71
2023/06/01 05:29:13;;;;;;;9.93;5.90;;;;;;;21.99;36.70;96299.28;5004385;28;20213;-70
2023/06/01 05:31:38;;;;;;;9.60;5.70;;;;;;;22.01;36.80;96302.69;4998470;28;20180;-71
2023/06/01 05:34:03;;;;;;;66.20;17.07;;;;;;;21.52;37.19;96307.13;4997008;28;20262;-71
2023/06/01 05:36:31;;;;;;;9.80;5.67;;;;;;;21.18;36.85;96312.75;5006898;28;20598;-70
2023/06/01 05:38:57;;;;;;;8.97;5.90;;;;;;;21.19;36.60;96308.25;5005104;28;20277;-69
2023/06/01 05:41:22;;;;;;;9.93;5.87;;;;;;;21.15;37.04;96307.69;5006539;28;20451;-70
2023/06/01 05:43:48;;;;;;;9.27;6.23;;;;;;;21.10;36.63;96301.91;4998054;28;20189;-72
2023/06/01 05:46:13;;;;;;;14.43;6.07;;;;;;;20.86;37.79;96300.41;5005375;28;20200;-72
2023/06/01 05:48:38;;;;;;;9.93;6.67;;;;;;;21.27;37.28;96306.59;5006211;28;20289;-71
2023/06/01 05:51:04;;;;;;;137.50;18.97;;;;;;;21.33;36.79;96311.41;5004203;28;20188;-70
2023/06/01 05:53:30;;;;;;;9.40;5.10;;;;;;;21.07;38.04;96313.72;4999696;28;20165;-70
2023/06/01 05:55:55;;;;;;;12.17;5.73;;;;;;;20.93;36.44;96316.75;5006602;28;20638;-70
2023/06/01 05:58:21;;;;;;;7.80;5.23;;;;;;;20.37;37.44;96312.59;5000904;28;20204;-72
2023/06/01 06:00:47;;;;;;;10.33;5.93;;;;;;;20.60;37.84;96307.13;5002652;28;20176;-70
2023/06/01 06:03:12;;;;;;;11.17;6.00;;;;;;;21.43;37.21;96305.28;4998600;28;20550;-71
2023/06/01 06:05:38;;;;;;;35.87;8.30;;;;;;;21.48;36.98;96306.56;5006473;28;20283;-70
2023/06/01 06:08:03;;;;;;;6.87;5.43;;;;;;;21.42;35.78;96301.75;4996038;28;20451;-71
2023/06/01 06:10:29;;;;;;;10.00;5.90;;;;;;;21.56;35.09;96303.19;5006582;28;20184;-71
2023/06/01 06:12:55;;;;;;;11.93;5.77;;;;;;;21.81;35.71;96303.66;5007002;28;20182;-70
2023/06/01 06:15:20;;;;;;;9.53;5.13;;;;;;;21.58;35.25;96301.22;5004865;28;20324;-70
2023/06/01 06:17:46;;;;;;;11.00;5.30;;;;;;;21.34;35.57;96313.09;4997678;28;20454;-72
2023/06/01 06:20:12;;;;;;;8.43;6.53;;;;;;;21.46;36.72;96308.50;4998789;28;20223;-71
2023/06/01 06:22:37;;;;;;;7.53;5.63;;;;;;;21.50;35.96;96306.44;5006691;28;20286;-69
2023/06/01 06:25:04;;;;;;;7.43;4.60;;;;;;;21.31;35.83;96313.38;5006459;28;20735;-69
2023/06/01 06:27:29;;;;;;;9.50;6.00;;;;;;;21.24;35.75;96306.88;4999532;28;20666;-72
2023/06/01 06:29:55;;;;;;;6.70;5.17;;;;;;;21.21;35.62;96304.47;5008627;28;20415;-71
2023/06/01 06:32:20;;;;;;;15.23;5.77;;;;;;;21.16;35.74;96306.69;4995606;28;20218;-73
2023/06/01 06:34:46;;;;;;;11.60;5.77;;;;;;;21.28;35.52;96313.66;5005799;28;20191;-72
2023/06/01 06:37:11;;;;;;;5.57;4.70;;;;;;;20.82;36.29;96317.66;5011713;28;20218;-70
2023/06/01 06:39:37;;;;;;;11.97;6.17;;;;;;;21.55;35.67;96309.53;5004322;28;20264;-72
2023/06/01 06:42:05;;;;;;;35.40;7.60;;;;;;;22.01;35.62;96308.03;5010070;28;20176;-71
2023/06/01 06:44:30;;;;;;;10.00;5.60;;;;;;;21.59;34.58;96310.94;5009953;28;20318;-73
2023/06/01 06:46:59;;;;;;;9.70;5.27;;;;;;;21.73;35.13;96309.69;5004678;28;20487;-73
2023/06/01 06:49:24;;;;;;;10.43;4.80;;;;;;;21.38;35.05;96318.16;5014931;28;20176;-73
2023/06/01 06:51:50;;;;;;;19.63;6.00;;;;;;;21.06;36.00;96316.50;5016520;28;20418;-71
2023/06/01 06:54:15;;;;;;;45.63;8.60;;;;;;;21.49;35.23;96318.06;5009159;28;20180;-70
2023/06/01 06:56:41;;;;;;;9.43;5.67;;;;;;;21.68;34.84;96318.09;4998326;28;20255;-74
2023/06/01 06:59:06;;;;;;;10.20;5.83;;;;;;;22.17;34.63;96313.66;5005507;28;20180;-74
2023/06/01 07:01:35;;;;;;;7.07;5.20;;;;;;;22.49;33.81;96306.31;4997347;28;20180;-71
2023/06/01 07:04:05;;;;;;;7.83;5.10;;;;;;;22.51;33.52;96304.34;5017101;28;20243;-72
2023/06/01 07:06:32;;;;;;;9.00;5.00;;;;;;;21.71;35.02;96312.50;5020304;28;20458;-71
2023/06/01 07:08:58;;;;;;;9.93;4.90;;;;;;;22.07;34.75;96302.13;5016220;28;20481;-71
2023/06/01 07:11:26;;;;;;;9.17;5.37;;;;;;;22.26;34.29;96303.13;5024775;28;20414;-72
2023/06/01 07:13:51;;;;;;;8.10;5.63;;;;;;;22.62;34.09;96306.88;5030960;28;20254;-71
2023/06/01 07:16:16;;;;;;;9.83;5.43;;;;;;;22.53;33.71;96310.41;5029768;28;20931;-71
2023/06/01 07:18:42;;;;;;;13.67;6.17;;;;;;;22.19;34.95;96317.03;5029422;28;20879;-73
2023/06/01 07:21:07;;;;;;;7.10;6.43;;;;;;;22.25;34.16;96314.81;5029129;28;20273;-71
2023/06/01 07:23:33;;;;;;;15.83;6.10;;;;;;;22.41;34.54;96315.91;5007994;28;20271;-72
2023/06/01 07:25:58;;;;;;;8.70;5.80;;;;;;;22.92;33.89;96316.50;5006397;28;20301;-69
2023/06/01 07:28:26;;;;;;;8.90;5.90;;;;;;;22.86;33.40;96300.19;5005687;28;20223;-69
2023/06/01 07:30:53;;;;;;;8.67;6.00;;;;;;;22.57;34.18;96304.63;5005800;28;20203;-70
2023/06/01 07:33:18;;;;;;;8.23;6.87;;;;;;;22.97;33.52;96310.72;5005170;28;20494;-71
2023/06/01 07:35:43;;;;;;;8.60;5.63;;;;;;;22.78;33.95;96314.31;5005347;28;20517;-69
2023/06/01 07:38:10;;;;;;;12.33;5.53;;;;;;;22.15;35.06;96309.44;5005380;28;20642;-68
2023/06/01 07:40:35;;;;;;;10.40;5.93;;;;;;;22.51;34.84;96305.22;5005465;28;20173;-69
2023/06/01 07:43:01;;;;;;;11.23;5.60;;;;;;;21.92;35.59;96306.19;5005544;28;20433;-68
2023/06/01 07:48:48;;;;;;;6.97;5.80;;;;;;;22.52;35.35;96303.38;4985600;28;20284;-69
2023/06/01 07:51:42;;;;;;;13.00;6.10;;;;;;;23.06;34.48;96293.81;5001643;28;20441;-68
2023/06/01 07:57:29;;;;;;;31.90;7.70;;;;;;;23.34;34.21;96301.84;4990073;28;20446;-71
2023/06/01 07:59:55;;;;;;;11.17;6.40;;;;;;;23.08;34.48;96294.53;4995214;28;20471;-67
2023/06/01 08:02:20;;;;;;;11.67;6.00;;;;;;;23.04;34.68;96293.13;4999421;28;20612;-69
2023/06/01 08:04:46;;;;;;;7.93;5.27;;;;;;;22.90;34.89;96297.09;4995629;28;20179;-69
2023/06/01 08:07:14;;;;;;;8.10;6.37;;;;;;;22.81;34.96;96296.13;5007755;28;20208;-69
2023/06/01 08:09:39;;;;;;;13.03;5.70;;;;;;;23.15;34.33;96298.28;5008564;28;20470;-68
2023/06/01 08:12:05;;;;;;;10.93;6.60;;;;;;;22.99;34.79;96295.41;5009128;28;20916;-70
2023/06/01 08:14:33;;;;;;;7.70;5.80;;;;;;;22.80;35.24;96297.13;5002493;28;20181;-69
2023/06/01 08:17:01;;;;;;;9.13;5.73;;;;;;;22.27;36.13;96292.28;5006656;28;20537;-68
2023/06/01 08:19:27;;;;;;;12.00;6.57;;;;;;;22.30;36.15;96301.84;5008813;28;20429;-69
2023/06/01 08:21:52;;;;;;;10.60;5.90;;;;;;;22.16;36.62;96300.44;5008781;28;20449;-71
2023/06/01 08:24:22;;;;;;;6.63;5.33;;;;;;;22.70;35.97;96299.00;5004027;28;20267;-71
2023/06/01 08:26:48;;;;;;;12.10;6.50;;;;;;;22.92;35.53;96294.28;5004383;28;20269;-71
2023/06/01 08:29:13;;;;;;;8.43;5.27;;;;;;;22.87;35.70;96291.16;4999372;28;20422;-68
2023/06/01 08:55:56;;;;;;;25.43;8.30;;;;;;;24.34;33.69;96279.44;5003715;28;20487;-69
2023/06/01 08:58:22;;;;;;;10.93;6.60;;;;;;;24.11;34.64;96294.31;5007763;28;20443;-68
2023/06/01 09:00:53;;;;;;;12.43;6.90;;;;;;;24.35;33.85;96282.94;5007689;28;20414;-69
2023/06/01 09:03:19;;;;;;;15.60;6.00;;;;;;;23.93;33.52;96291.63;5004380;28;20195;-69
2023/06/01 09:05:45;;;;;;;12.77;6.83;;;;;;;23.94;33.79;96290.66;5006872;28;20970;-69
2023/06/01 09:08:11;;;;;;;10.93;6.70;;;;;;;23.91;34.48;96288.28;4999570;28;20447;-70
2023/06/01 09:10:36;;;;;;;8.03;5.30;;;;;;;24.21;34.47;96278.97;5002344;28;20255;-68
2023/06/01 09:13:03;;;;;;;11.90;6.60;;;;;;;24.38;33.64;96286.19;5007724;28;20713;-68
2023/06/01 09:15:28;;;;;;;9.70;5.80;;;;;;;24.34;33.29;96276.75;5039446;28;20255;-67
2023/06/01 09:18:07;;;;;;;8.70;6.20;;;;;;;24.26;33.72;96287.41;5005574;28;20984;-69
2023/06/01 09:20:33;;;;;;;8.80;6.43;;;;;;;23.90;34.23;96286.59;5003810;28;20184;-69
2023/06/01 09:22:58;;;;;;;7.60;6.30;;;;;;;24.26;33.63;96290.94;5007318;28;21190;-69
2023/06/01 09:25:29;;;;;;;8.57;5.70;;;;;;;24.32;33.48;96286.78;5005034;28;20183;-69
2023/06/01 09:27:56;;;;;;;7.17;5.43;;;;;;;23.78;34.02;96289.47;5003929;28;20234;-69
2023/06/01 09:30:26;;;;;;;12.67;6.90;;;;;;;23.50;34.20;96277.94;5005654;28;20415;-68
2023/06/01 09:33:09;;;;;;;11.10;6.30;;;;;;;23.96;34.22;96275.25;4991229;28;20408;-68
2023/06/01 09:35:45;;;;;;;8.40;5.40;;;;;;;24.23;33.22;96277.81;4998034;28;20446;-68
2023/06/01 09:38:11;;;;;;;8.10;5.60;;;;;;;24.55;32.94;96271.06;5007018;28;20443;-67
2023/06/01 09:40:39;;;;;;;7.73;6.10;;;;;;;24.54;33.69;96280.09;5006635;28;20466;-70
2023/06/01 09:43:20;;;;;;;7.60;5.40;;;;;;;24.35;33.21;96269.53;4993967;28;20494;-68
2023/06/01 09:46:04;;;;;;;12.43;6.03;;;;;;;24.27;32.36;96281.91;4998104;28;20459;-70
2023/06/01 09:48:29;;;;;;;7.70;5.70;;;;;;;24.26;32.79;96269.50;5006994;28;20426;-69
2023/06/01 09:50:54;;;;;;;8.70;5.20;;;;;;;24.08;33.01;96274.88;4999350;28;20450;-69
2023/06/01 09:53:20;;;;;;;8.43;5.60;;;;;;;24.66;32.85;96262.78;4997061;28;20180;-69
2023/06/01 09:55:59;;;;;;;8.67;6.93;;;;;;;24.95;31.84;96272.31;5002647;28;20176;-68
2023/06/01 09:58:24;;;;;;;11.87;6.30;;;;;;;24.60;31.98;96263.38;4998557;28;20200;-70
2023/06/01 10:00:51;;;;;;;7.43;5.63;;;;;;;24.33;31.52;96256.31;5007993;28;20423;-70
2023/06/01 10:03:18;;;;;;;12.80;6.20;;;;;;;24.22;32.08;96254.72;5003168;28;20177;-70
2023/06/01 10:05:45;;;;;;;10.00;6.73;;;;;;;24.88;31.70;96249.81;5002848;28;20455;-70
2023/06/01 10:08:12;;;;;;;7.80;5.30;;;;;;;25.11;31.42;96248.25;5003715;28;20612;-69
2023/06/01 10:10:39;;;;;;;10.20;7.40;;;;;;;25.08;31.16;96251.22;5008481;28;20415;-69
2023/06/01 10:13:06;;;;;;;8.20;5.57;;;;;;;25.01;30.47;96255.56;5012994;28;20459;-71
2023/06/01 10:15:32;;;;;;;8.53;6.20;;;;;;;24.28;31.62;96251.41;5001007;28;20415;-69
2023/06/01 10:17:59;;;;;;;14.27;6.50;;;;;;;24.67;32.19;96251.03;5008011;28;21054;-70
2023/06/01 10:20:25;;;;;;;7.20;6.00;;;;;;;24.91;31.05;96244.94;5015179;28;20908;-70
2023/06/01 10:22:51;;;;;;;7.70;6.10;;;;;;;24.96;30.40;96252.53;5012188;28;20477;-70
2023/06/01 10:25:21;;;;;;;10.43;5.73;;;;;;;24.41;30.59;96244.78;5009756;28;20443;-68
2023/06/01 10:27:55;;;;;;;9.90;5.80;;;;;;;24.49;31.58;96250.22;5002893;28;20543;-70
2023/06/01 10:30:21;;;;;;;6.90;5.50;;;;;;;24.34;31.10;96246.41;5010041;28;20439;-69
2023/06/01 10:32:48;;;;;;;12.83;6.27;;;;;;;24.38;31.04;96247.75;5008856;28;20497;-67
2023/06/01 10:35:25;;;;;;;15.70;8.13;;;;;;;24.39;30.27;96244.94;5016390;28;20202;-69
2023/06/01 10:38:06;;;;;;;14.13;6.07;;;;;;;24.30;30.53;96246.72;5008104;28;20890;-69
2023/06/01 10:40:42;;;;;;;8.73;6.10;;;;;;;24.50;30.61;96243.88;4998157;28;20897;-68
2023/06/01 10:43:27;;;;;;;10.10;5.70;;;;;;;24.60;30.47;96235.72;5006257;28;20422;-70
2023/06/01 10:45:53;;;;;;;7.97;6.73;;;;;;;24.59;30.51;96234.03;5004080;28;20463;-70
2023/06/01 10:48:57;;;;;;;13.80;6.20;;;;;;;25.01;30.43;96234.09;5006016;28;21002;-71
2023/06/01 10:51:27;;;;;;;14.97;6.40;;;;;;;24.71;30.34;96238.97;5006529;28;20168;-72
2023/06/01 10:53:53;;;;;;;11.67;5.93;;;;;;;24.69;29.95;96242.81;5006491;28;21225;-70
2023/06/01 10:56:26;;;;;;;5.77;5.23;;;;;;;24.86;29.99;96227.66;5006548;28;20418;-69
2023/06/01 10:59:07;;;;;;;13.57;6.43;;;;;;;24.72;29.52;96232.59;5005601;28;20249;-69
2023/06/01 11:01:37;;;;;;;8.17;6.70;;;;;;;24.57;29.91;96241.38;5004906;28;20557;-70
2023/06/01 11:04:03;;;;;;;7.30;5.90;;;;;;;24.78;30.33;96233.81;5005876;28;20407;-71
2023/06/01 11:06:48;;;;;;;10.00;6.10;;;;;;;24.97;30.16;96235.44;5004559;28;20489;-72
2023/06/01 11:09:16;;;;;;;13.20;6.47;;;;;;;24.95;29.47;96226.69;5005012;28;20191;-73
2023/06/01 11:11:48;;;;;;;7.60;6.80;;;;;;;24.87;29.94;96232.00;5005858;28;20948;-70
2023/06/01 11:14:15;;;;;;;8.63;5.90;;;;;;;24.72;30.25;96232.59;4998957;28;20494;-73
2023/06/01 11:16:40;;;;;;;12.10;6.10;;;;;;;24.56;30.49;96224.44;5006855;28;20407;-72
2023/06/01 11:19:07;;;;;;;7.07;6.03;;;;;;;24.43;30.36;96221.34;5007409;28;20503;-71
2023/06/01 11:21:40;;;;;;;18.60;6.27;;;;;;;24.57;29.88;96223.47;5003436;28;20800;-71
2023/06/01 11:24:12;;;;;;;9.03;5.80;;;;;;;24.30;31.19;96224.41;5001906;28;20434;-69
2023/06/01 11:26:44;;;;;;;11.30;6.60;;;;;;;24.16;31.40;96223.16;4998825;28;20482;-72
2023/06/01 11:29:24;;;;;;;11.37;6.53;;;;;;;24.49;30.83;96205.47;5011175;28;20426;-71
2023/06/01 11:31:53;;;;;;;14.17;7.60;;;;;;;24.78;30.38;96204.31;5009724;28;20407;-71
2023/06/01 11:34:26;;;;;;;22.37;7.57;;;;;;;24.73;30.13;96209.28;5008992;28;20446;-70
2023/06/01 11:36:52;;;;;;;8.80;6.33;;;;;;;24.88;30.12;96215.75;5000270;28;20934;-67
2023/06/01 11:39:20;;;;;;;12.07;6.47;;;;;;;24.83;30.15;96203.81;5000954;28;20443;-68
2023/06/01 11:41:47;;;;;;;14.10;6.40;;;;;;;24.62;30.43;96199.69;5005595;28;20576;-69
2023/06/01 11:44:12;;;;;;;9.50;6.47;;;;;;;24.57;30.26;96206.50;5008410;28;20477;-68
2023/06/01 11:46:50;;;;;;;12.03;6.57;;;;;;;24.80;29.24;96202.28;5001147;28;21262;-70
2023/06/01 11:49:15;;;;;;;10.43;6.70;;;;;;;24.71;28.98;96198.72;5009613;28;20183;-70
2023/06/01 11:51:42;;;;;;;12.80;6.43;;;;;;;24.87;29.01;96199.78;5001864;28;20490;-68
2023/06/01 11:54:08;;;;;;;7.73;6.87;;;;;;;24.77;29.36;96202.59;5007780;28;20238;-68
2023/06/01 11:56:35;;;;;;;9.27;6.97;;;;;;;24.68;29.30;96195.50;5008304;28;20489;-69
2023/06/01 11:59:09;;;;;;;8.10;6.30;;;;;;;24.90;29.63;96186.91;5000835;28;21168;-68
2023/06/01 12:01:48;;;;;;;9.33;7.00;;;;;;;24.38;30.59;96188.75;5009348;28;20423;-69
2023/06/01 12:04:14;;;;;;;10.80;6.90;;;;;;;24.44;30.07;96185.47;5009066;28;21015;-68